createdAt,value
2022-10-28T00:00:45.728Z,0.00
2022-10-28T00:01:45.728Z,0.00
2022-10-28T00:02:45.723Z,0.00
2022-10-28T00:03:45.651Z,0.00
2022-10-28T00:04:45.635Z,0.00
2022-10-28T00:05:45.621Z,0.00
2022-10-28T00:06:45.638Z,0.00
2022-10-28T00:07:45.667Z,0.00
2022-10-28T00:08:45.624Z,0.00
2022-10-28T00:09:45.690Z,0.00
2022-10-28T00:10:45.757Z,0.00
2022-10-28T00:11:45.657Z,0.00
2022-10-28T00:12:45.794Z,0.00
2022-10-28T00:13:45.686Z,0.00
2022-10-28T00:14:45.764Z,0.00
2022-10-28T00:15:45.638Z,0.00
2022-10-28T00:16:45.628Z,0.00
2022-10-28T00:17:45.719Z,0.00
2022-10-28T00:18:45.639Z,0.00
2022-10-28T00:19:45.596Z,0.00
2022-10-28T00:20:45.640Z,0.00
2022-10-28T00:21:45.596Z,0.00
2022-10-28T00:22:45.584Z,0.00
2022-10-28T00:23:45.724Z,0.00
2022-10-28T00:24:45.509Z,0.00
2022-10-28T00:25:45.511Z,0.00
2022-10-28T00:26:45.645Z,0.00
2022-10-28T00:27:45.535Z,0.00
2022-10-28T00:28:45.567Z,0.00
2022-10-28T00:29:45.596Z,0.00
2022-10-28T00:30:45.503Z,0.00
2022-10-28T00:31:45.585Z,0.00
2022-10-28T00:32:45.571Z,0.00
2022-10-28T00:33:45.605Z,0.00
2022-10-28T00:34:45.524Z,0.00
2022-10-28T00:35:45.588Z,0.00
2022-10-28T00:36:45.508Z,0.00
2022-10-28T00:37:45.590Z,0.00
2022-10-28T00:38:45.480Z,0.00
2022-10-28T00:39:45.451Z,0.00
2022-10-28T00:40:45.436Z,0.00
2022-10-28T00:41:45.342Z,0.00
2022-10-28T00:42:45.351Z,0.00
2022-10-28T00:43:45.382Z,0.00
2022-10-28T00:44:45.351Z,0.00
2022-10-28T00:45:45.360Z,0.00
2022-10-28T00:46:45.321Z,0.00
2022-10-28T00:47:45.323Z,0.00
2022-10-28T00:48:45.357Z,0.00
2022-10-28T00:49:45.409Z,0.00
2022-10-28T00:50:45.374Z,0.00
2022-10-28T00:51:45.425Z,0.00
2022-10-28T00:52:45.429Z,0.00
2022-10-28T00:53:45.353Z,0.00
2022-10-28T00:54:45.424Z,0.00
2022-10-28T00:55:45.363Z,0.00
2022-10-28T00:56:45.456Z,0.00
2022-10-28T00:57:45.432Z,0.00
2022-10-28T00:58:45.408Z,0.00
2022-10-28T00:59:45.318Z,0.00
2022-10-28T01:00:45.430Z,0.00
2022-10-28T01:01:45.376Z,0.00
2022-10-28T01:02:45.340Z,0.00
2022-10-28T01:03:45.202Z,0.00
2022-10-28T01:04:45.223Z,0.00
2022-10-28T01:05:45.229Z,0.00
2022-10-28T01:06:45.157Z,0.00
2022-10-28T01:07:45.236Z,0.00
2022-10-28T01:08:45.174Z,0.00
2022-10-28T01:09:45.163Z,0.00
2022-10-28T01:10:45.187Z,0.00
2022-10-28T01:11:45.116Z,0.00
2022-10-28T01:12:45.231Z,0.00
2022-10-28T01:13:45.316Z,0.00
2022-10-28T01:14:45.188Z,0.00
2022-10-28T01:15:45.300Z,0.00
2022-10-28T01:16:45.244Z,0.00
2022-10-28T01:17:45.312Z,0.00
2022-10-28T01:18:45.239Z,0.00
2022-10-28T01:19:45.276Z,0.00
2022-10-28T01:20:46.365Z,0.00
2022-10-28T01:21:45.267Z,0.00
2022-10-28T01:22:45.236Z,0.00
2022-10-28T01:23:45.142Z,0.00
2022-10-28T01:24:45.272Z,0.00
2022-10-28T01:25:45.132Z,0.00
2022-10-28T01:26:45.049Z,0.00
2022-10-28T01:27:45.044Z,0.00
2022-10-28T01:28:45.017Z,0.00
2022-10-28T01:29:45.150Z,0.00
2022-10-28T01:30:45.049Z,0.00
2022-10-28T01:31:45.013Z,0.00
2022-10-28T01:32:44.981Z,0.00
2022-10-28T01:33:44.983Z,0.00
2022-10-28T01:34:44.977Z,0.00
2022-10-28T01:35:46.046Z,0.00
2022-10-28T01:36:45.051Z,0.00
2022-10-28T01:37:45.129Z,0.00
2022-10-28T01:38:45.127Z,0.00
2022-10-28T01:39:45.037Z,0.00
2022-10-28T01:40:45.149Z,0.00
2022-10-28T01:41:45.033Z,0.00
2022-10-28T01:42:45.148Z,0.00
2022-10-28T01:43:45.033Z,0.00
2022-10-28T01:44:45.089Z,0.00
2022-10-28T01:45:45.076Z,0.00
2022-10-28T01:46:44.945Z,0.00
2022-10-28T01:47:44.918Z,0.00
2022-10-28T01:48:44.903Z,0.00
2022-10-28T01:49:44.950Z,0.00
2022-10-28T01:50:44.901Z,0.00
2022-10-28T01:51:44.911Z,0.00
2022-10-28T01:52:44.962Z,0.00
2022-10-28T01:53:44.921Z,0.00
2022-10-28T01:54:44.907Z,0.00
2022-10-28T01:55:44.941Z,0.00
2022-10-28T01:56:44.955Z,0.00
2022-10-28T01:57:44.918Z,0.00
2022-10-28T01:58:44.891Z,0.00
2022-10-28T01:59:44.961Z,0.00
2022-10-28T02:00:44.902Z,0.00
2022-10-28T02:01:45.311Z,0.00
2022-10-28T02:02:44.878Z,0.00
2022-10-28T02:03:44.943Z,0.00
2022-10-28T02:04:44.857Z,0.00
2022-10-28T02:05:44.814Z,0.00
2022-10-28T02:06:44.777Z,0.00
2022-10-28T02:07:44.788Z,0.00
2022-10-28T02:08:44.812Z,0.00
2022-10-28T02:09:44.834Z,0.00
2022-10-28T02:10:44.820Z,0.00
2022-10-28T02:11:44.810Z,0.00
2022-10-28T02:12:44.836Z,0.00
2022-10-28T02:13:44.812Z,0.00
2022-10-28T02:14:44.780Z,0.00
2022-10-28T02:15:44.799Z,0.00
2022-10-28T02:16:44.838Z,0.00
2022-10-28T02:18:51.435Z,0.00
2022-10-28T02:19:52.611Z,0.00
2022-10-28T02:20:52.603Z,0.00
2022-10-28T02:21:52.621Z,0.00
2022-10-28T02:22:52.591Z,0.00
2022-10-28T02:23:52.511Z,0.00
2022-10-28T02:24:52.470Z,0.00
2022-10-28T02:25:52.602Z,0.00
2022-10-28T02:26:52.453Z,0.00
2022-10-28T02:27:52.799Z,0.00
2022-10-28T02:28:52.454Z,0.00
2022-10-28T02:29:52.759Z,0.00
2022-10-28T02:30:52.452Z,0.00
2022-10-28T02:31:52.505Z,0.00
2022-10-28T02:32:52.710Z,0.00
2022-10-28T02:33:52.498Z,0.00
2022-10-28T02:34:52.527Z,0.00
2022-10-28T02:35:52.494Z,0.00
2022-10-28T02:36:52.486Z,0.00
2022-10-28T02:37:52.436Z,0.00
2022-10-28T02:38:52.523Z,0.00
2022-10-28T02:39:52.445Z,0.00
2022-10-28T02:41:52.424Z,0.00
2022-10-28T02:42:52.822Z,0.00
2022-10-28T02:43:52.433Z,0.00
2022-10-28T02:44:52.380Z,0.00
2022-10-28T02:45:52.383Z,0.00
2022-10-28T02:46:52.327Z,0.00
2022-10-28T02:47:52.362Z,0.00
2022-10-28T02:48:52.455Z,0.00
2022-10-28T02:49:52.380Z,0.00
2022-10-28T02:50:52.613Z,0.00
2022-10-28T02:51:52.378Z,0.00
2022-10-28T02:52:52.800Z,0.00
2022-10-28T02:53:52.371Z,0.00
2022-10-28T02:54:52.434Z,0.00
2022-10-28T02:55:52.340Z,0.00
2022-10-28T02:56:52.362Z,0.00
2022-10-28T02:57:52.722Z,0.00
2022-10-28T02:58:52.311Z,0.00
2022-10-28T02:59:52.307Z,0.00
2022-10-28T03:00:52.320Z,0.00
2022-10-28T03:01:52.376Z,0.00
2022-10-28T03:02:52.258Z,0.00
2022-10-28T03:03:52.224Z,0.00
2022-10-28T03:04:52.226Z,0.00
2022-10-28T03:05:52.296Z,0.00
2022-10-28T03:06:52.196Z,0.00
2022-10-28T03:07:52.475Z,0.00
2022-10-28T03:08:52.184Z,0.00
2022-10-28T03:09:52.339Z,0.00
2022-10-28T03:10:52.285Z,0.00
2022-10-28T03:11:52.304Z,0.00
2022-10-28T03:12:52.288Z,0.00
2022-10-28T03:13:52.297Z,0.00
2022-10-28T03:14:52.194Z,0.00
2022-10-28T03:15:52.240Z,0.00
2022-10-28T03:16:52.226Z,0.00
2022-10-28T03:17:52.424Z,0.00
2022-10-28T03:18:52.173Z,0.00
2022-10-28T03:19:52.172Z,0.00
2022-10-28T03:20:55.379Z,0.00
2022-10-28T03:21:54.146Z,0.00
2022-10-28T03:22:52.438Z,0.00
2022-10-28T03:23:52.117Z,0.00
2022-10-28T03:24:52.038Z,0.00
2022-10-28T03:25:52.027Z,0.00
2022-10-28T03:26:52.113Z,0.00
2022-10-28T03:27:52.047Z,0.00
2022-10-28T03:28:52.046Z,0.00
2022-10-28T03:29:52.007Z,0.00
2022-10-28T03:30:52.229Z,0.00
2022-10-28T03:31:52.088Z,0.00
2022-10-28T03:32:52.269Z,0.00
2022-10-28T03:33:52.079Z,0.00
2022-10-28T03:34:52.286Z,0.00
2022-10-28T03:35:52.029Z,0.00
2022-10-28T03:36:52.165Z,0.00
2022-10-28T03:37:52.006Z,0.00
2022-10-28T03:38:52.025Z,0.00
2022-10-28T03:39:52.024Z,0.00
2022-10-28T03:40:52.062Z,0.00
2022-10-28T03:41:52.002Z,0.00
2022-10-28T03:42:52.438Z,0.00
2022-10-28T03:43:51.982Z,0.00
2022-10-28T03:44:51.923Z,0.00
2022-10-28T03:45:52.006Z,0.00
2022-10-28T03:46:51.920Z,0.00
2022-10-28T03:47:52.253Z,0.00
2022-10-28T03:48:51.997Z,0.00
2022-10-28T03:49:51.947Z,0.00
2022-10-28T03:50:52.036Z,0.00
2022-10-28T03:51:52.047Z,0.00
2022-10-28T03:52:51.900Z,0.00
2022-10-28T03:53:51.991Z,0.00
2022-10-28T03:54:51.939Z,0.00
2022-10-28T03:55:51.966Z,0.00
2022-10-28T03:56:51.969Z,0.00
2022-10-28T03:57:52.234Z,0.00
2022-10-28T03:59:51.990Z,0.00
2022-10-28T04:00:51.864Z,0.00
2022-10-28T04:01:51.928Z,0.00
2022-10-28T04:02:52.321Z,0.00
2022-10-28T04:03:51.796Z,0.00
2022-10-28T04:04:51.755Z,0.00
2022-10-28T04:05:51.770Z,0.00
2022-10-28T04:06:51.753Z,0.00
2022-10-28T04:07:51.799Z,0.00
2022-10-28T04:08:51.821Z,0.00
2022-10-28T04:09:51.827Z,0.00
2022-10-28T04:10:51.881Z,0.00
2022-10-28T04:11:51.813Z,0.00
2022-10-28T04:12:52.034Z,0.00
2022-10-28T04:13:51.858Z,0.00
2022-10-28T04:14:51.864Z,0.00
2022-10-28T04:15:51.766Z,0.00
2022-10-28T04:16:51.801Z,0.00
2022-10-28T04:17:51.791Z,0.00
2022-10-28T04:18:51.883Z,0.00
2022-10-28T04:19:51.734Z,0.00
2022-10-28T04:20:51.848Z,0.00
2022-10-28T04:21:51.746Z,0.00
2022-10-28T04:22:54.621Z,0.00
2022-10-28T04:23:53.679Z,0.00
2022-10-28T04:24:51.606Z,0.00
2022-10-28T04:25:51.751Z,0.00
2022-10-28T04:26:51.697Z,0.00
2022-10-28T04:27:52.079Z,0.00
2022-10-28T04:28:51.731Z,0.00
2022-10-28T04:29:51.702Z,0.00
2022-10-28T04:30:51.675Z,0.00
2022-10-28T04:31:52.386Z,0.00
2022-10-28T04:32:51.689Z,0.00
2022-10-28T04:33:51.677Z,0.00
2022-10-28T04:34:51.690Z,0.00
2022-10-28T04:35:51.677Z,0.00
2022-10-28T04:36:51.643Z,0.00
2022-10-28T04:37:52.094Z,0.00
2022-10-28T04:38:51.638Z,0.00
2022-10-28T04:39:51.948Z,0.00
2022-10-28T04:40:51.654Z,0.00
2022-10-28T04:41:51.746Z,0.00
2022-10-28T04:42:51.861Z,0.00
2022-10-28T04:43:51.734Z,0.00
2022-10-28T04:44:51.653Z,0.00
2022-10-28T04:45:51.749Z,0.00
2022-10-28T04:46:51.484Z,0.00
2022-10-28T04:47:51.487Z,0.00
2022-10-28T04:49:06.853Z,0.00
2022-10-28T04:49:51.539Z,0.00
2022-10-28T04:50:51.606Z,0.00
2022-10-28T04:51:51.606Z,0.00
2022-10-28T04:52:51.837Z,0.00
2022-10-28T04:53:51.593Z,0.00
2022-10-28T04:54:51.545Z,0.00
2022-10-28T04:55:51.545Z,0.00
2022-10-28T04:56:51.553Z,0.00
2022-10-28T04:57:51.542Z,0.00
2022-10-28T04:58:51.547Z,0.00
2022-10-28T04:59:51.499Z,0.00
2022-10-28T05:00:51.502Z,0.00
2022-10-28T05:01:51.568Z,0.00
2022-10-28T05:02:51.549Z,0.00
2022-10-28T05:03:51.577Z,0.00
2022-10-28T05:04:51.532Z,0.00
2022-10-28T05:05:51.511Z,0.00
2022-10-28T05:06:51.587Z,0.00
2022-10-28T05:07:51.774Z,0.00
2022-10-28T05:08:51.335Z,0.00
2022-10-28T05:09:51.410Z,0.00
2022-10-28T05:10:51.527Z,0.00
2022-10-28T05:11:51.426Z,0.00
2022-10-28T05:12:51.470Z,0.00
2022-10-28T05:13:51.391Z,0.00
2022-10-28T05:14:53.102Z,0.00
2022-10-28T05:15:52.380Z,0.00
2022-10-28T05:16:51.376Z,0.00
2022-10-28T05:17:51.806Z,0.00
2022-10-28T05:18:51.396Z,0.00
2022-10-28T05:19:51.370Z,0.00
2022-10-28T05:20:51.372Z,0.00
2022-10-28T05:21:51.349Z,0.00
2022-10-28T05:22:51.477Z,0.00
2022-10-28T05:23:51.385Z,0.00
2022-10-28T05:24:51.305Z,0.00
2022-10-28T05:25:51.376Z,0.00
2022-10-28T05:26:51.295Z,0.00
2022-10-28T05:27:51.363Z,0.00
2022-10-28T05:28:51.308Z,0.00
2022-10-28T05:29:51.182Z,0.00
2022-10-28T05:30:51.190Z,0.00
2022-10-28T05:31:51.232Z,0.00
2022-10-28T05:32:54.361Z,0.00
2022-10-28T05:33:51.138Z,0.00
2022-10-28T05:34:51.255Z,0.00
2022-10-28T05:35:51.127Z,0.00
2022-10-28T05:36:51.155Z,0.00
2022-10-28T05:37:51.114Z,0.00
2022-10-28T05:38:51.133Z,0.00
2022-10-28T05:39:51.146Z,0.00
2022-10-28T05:40:51.195Z,0.00
2022-10-28T05:41:51.193Z,0.00
2022-10-28T05:42:51.491Z,0.00
2022-10-28T05:43:51.198Z,0.00
2022-10-28T05:44:51.397Z,0.00
2022-10-28T05:45:51.159Z,0.00
2022-10-28T05:46:51.275Z,0.00
2022-10-28T05:47:51.289Z,0.00
2022-10-28T05:48:51.213Z,0.00
2022-10-28T05:49:51.143Z,0.00
2022-10-28T05:50:51.257Z,0.00
2022-10-28T05:51:51.120Z,0.00
2022-10-28T05:52:51.203Z,0.00
2022-10-28T05:53:51.116Z,0.00
2022-10-28T05:54:51.100Z,0.00
2022-10-28T05:55:51.168Z,0.00
2022-10-28T05:56:51.081Z,0.00
2022-10-28T05:57:51.351Z,0.00
2022-10-28T05:58:51.048Z,0.00
2022-10-28T05:59:50.971Z,0.00
2022-10-28T06:00:50.962Z,0.00
2022-10-28T06:01:51.087Z,0.00
2022-10-28T06:02:51.201Z,0.00
2022-10-28T06:03:51.030Z,0.00
2022-10-28T06:04:50.931Z,0.00
2022-10-28T06:05:51.028Z,0.00
2022-10-28T06:06:51.117Z,0.00
2022-10-28T06:07:50.973Z,5.62
2022-10-28T06:08:52.036Z,5.62
2022-10-28T06:09:51.034Z,5.62
2022-10-28T06:10:56.962Z,5.62
2022-10-28T06:11:49.522Z,5.62
2022-10-28T06:12:49.589Z,5.62
2022-10-28T06:13:49.496Z,5.62
2022-10-28T06:14:50.426Z,11.25
2022-10-28T06:15:49.515Z,11.25
2022-10-28T06:16:49.409Z,11.25
2022-10-28T06:17:49.422Z,11.25
2022-10-28T06:18:49.428Z,16.88
2022-10-28T06:19:49.316Z,16.88
2022-10-28T06:20:49.308Z,16.88
2022-10-28T06:21:49.320Z,16.88
2022-10-28T06:22:49.496Z,22.50
2022-10-28T06:23:49.325Z,22.50
2022-10-28T06:24:49.444Z,22.50
2022-10-28T06:25:49.265Z,28.12
2022-10-28T06:26:49.283Z,28.12
2022-10-28T06:27:49.509Z,28.12
2022-10-28T06:28:49.266Z,28.12
2022-10-28T06:29:49.328Z,33.75
2022-10-28T06:30:49.396Z,33.75
2022-10-28T06:31:49.331Z,33.75
2022-10-28T06:32:49.413Z,39.38
2022-10-28T06:33:49.382Z,39.38
2022-10-28T06:34:49.427Z,39.38
2022-10-28T06:35:49.350Z,45.00
2022-10-28T06:36:49.405Z,45.00
2022-10-28T06:37:49.436Z,45.00
2022-10-28T06:38:49.366Z,45.00
2022-10-28T06:39:49.368Z,50.62
2022-10-28T06:40:52.389Z,50.62
2022-10-28T06:41:49.278Z,50.62
2022-10-28T06:42:49.501Z,56.25
2022-10-28T06:43:49.305Z,56.25
2022-10-28T06:44:49.233Z,56.25
2022-10-28T06:45:49.211Z,61.88
2022-10-28T06:46:50.694Z,61.88
2022-10-28T06:47:50.682Z,61.88
2022-10-28T06:48:50.675Z,67.50
2022-10-28T06:49:50.700Z,67.50
2022-10-28T06:50:50.727Z,73.12
2022-10-28T06:51:50.677Z,73.12
2022-10-28T06:52:50.667Z,73.12
2022-10-28T06:53:50.607Z,78.75
2022-10-28T06:54:50.635Z,78.75
2022-10-28T06:55:50.648Z,84.38
2022-10-28T06:56:50.704Z,84.38
2022-10-28T06:57:50.948Z,84.38
2022-10-28T06:58:50.767Z,90.00
2022-10-28T06:59:50.580Z,95.62
2022-10-28T07:00:50.715Z,95.62
2022-10-28T07:01:50.768Z,101.25
2022-10-28T07:02:50.683Z,101.25
2022-10-28T07:03:50.661Z,106.88
2022-10-28T07:04:50.656Z,106.88
2022-10-28T07:05:50.631Z,106.88
2022-10-28T07:06:52.072Z,112.50
2022-10-28T07:07:50.829Z,112.50
2022-10-28T07:08:50.657Z,112.50
2022-10-28T07:09:50.663Z,118.12
2022-10-28T07:10:50.700Z,118.12
2022-10-28T07:11:54.878Z,118.12
2022-10-28T07:12:52.848Z,123.75
2022-10-28T07:13:50.499Z,123.75
2022-10-28T07:14:50.492Z,123.75
2022-10-28T07:15:50.587Z,123.75
2022-10-28T07:16:50.645Z,129.38
2022-10-28T07:17:50.587Z,129.38
2022-10-28T07:18:50.665Z,135.00
2022-10-28T07:19:50.568Z,135.00
2022-10-28T07:20:50.656Z,135.00
2022-10-28T07:21:50.523Z,135.00
2022-10-28T07:22:52.493Z,135.00
2022-10-28T07:23:50.595Z,135.00
2022-10-28T07:24:51.043Z,140.62
2022-10-28T07:25:50.622Z,140.62
2022-10-28T07:26:53.003Z,140.62
2022-10-28T07:27:51.898Z,146.25
2022-10-28T07:28:50.474Z,146.25
2022-10-28T07:29:50.466Z,151.88
2022-10-28T07:30:50.481Z,151.88
2022-10-28T07:31:50.372Z,151.88
2022-10-28T07:32:50.438Z,157.50
2022-10-28T07:33:50.492Z,157.50
2022-10-28T07:34:50.455Z,163.12
2022-10-28T07:35:50.436Z,163.12
2022-10-28T07:36:50.359Z,163.12
2022-10-28T07:37:50.318Z,168.75
2022-10-28T07:38:50.361Z,168.75
2022-10-28T07:39:50.333Z,168.75
2022-10-28T07:40:51.240Z,168.75
2022-10-28T07:41:50.319Z,174.38
2022-10-28T07:42:50.335Z,174.38
2022-10-28T07:43:50.293Z,174.38
2022-10-28T07:44:50.358Z,168.75
2022-10-28T07:45:50.290Z,163.12
2022-10-28T07:46:54.226Z,174.38
2022-10-28T07:47:51.296Z,174.38
2022-10-28T07:48:50.382Z,146.25
2022-10-28T07:49:50.406Z,185.62
2022-10-28T07:50:50.375Z,185.62
2022-10-28T07:51:50.329Z,191.25
2022-10-28T07:52:50.331Z,191.25
2022-10-28T07:53:50.371Z,191.25
2022-10-28T07:54:50.332Z,196.88
2022-10-28T07:55:50.369Z,196.88
2022-10-28T07:56:50.311Z,196.88
2022-10-28T07:57:50.281Z,196.88
2022-10-28T07:58:50.280Z,202.50
2022-10-28T07:59:51.425Z,202.50
2022-10-28T08:00:50.389Z,202.50
2022-10-28T08:01:50.262Z,208.12
2022-10-28T08:02:50.386Z,213.75
2022-10-28T08:03:50.204Z,213.75
2022-10-28T08:04:50.324Z,213.75
2022-10-28T08:05:50.214Z,208.12
2022-10-28T08:06:50.372Z,213.75
2022-10-28T08:07:50.196Z,213.75
2022-10-28T08:08:50.229Z,213.75
2022-10-28T08:09:50.098Z,213.75
2022-10-28T08:10:50.067Z,213.75
2022-10-28T08:11:50.210Z,219.38
2022-10-28T08:12:50.082Z,219.38
2022-10-28T08:13:50.039Z,225.00
2022-10-28T08:14:50.038Z,225.00
2022-10-28T08:15:50.009Z,230.62
2022-10-28T08:16:50.046Z,230.62
2022-10-28T08:17:50.247Z,230.62
2022-10-28T08:18:50.101Z,230.62
2022-10-28T08:19:50.081Z,230.62
2022-10-28T08:20:50.160Z,230.62
2022-10-28T08:21:50.133Z,230.62
2022-10-28T08:22:50.136Z,230.62
2022-10-28T08:23:50.117Z,230.62
2022-10-28T08:24:50.042Z,230.62
2022-10-28T08:25:50.153Z,225.00
2022-10-28T08:26:50.007Z,225.00
2022-10-28T08:27:50.171Z,219.38
2022-10-28T08:28:50.033Z,219.38
2022-10-28T08:29:49.921Z,219.38
2022-10-28T08:31:04.073Z,213.75
2022-10-28T08:31:51.913Z,219.38
2022-10-28T08:32:49.909Z,213.75
2022-10-28T08:33:50.014Z,202.50
2022-10-28T08:34:49.954Z,219.38
2022-10-28T08:35:49.962Z,225.00
2022-10-28T08:36:50.040Z,225.00
2022-10-28T08:37:49.933Z,219.38
2022-10-28T08:38:49.993Z,219.38
2022-10-28T08:39:49.951Z,208.12
2022-10-28T08:40:49.932Z,202.50
2022-10-28T08:41:49.927Z,196.88
2022-10-28T08:42:49.949Z,191.25
2022-10-28T08:43:57.205Z,185.62
2022-10-28T08:44:51.961Z,191.25
2022-10-28T08:45:49.897Z,185.62
2022-10-28T08:46:49.957Z,185.62
2022-10-28T08:47:50.036Z,185.62
2022-10-28T08:48:49.997Z,185.62
2022-10-28T08:49:49.916Z,191.25
2022-10-28T08:50:49.847Z,202.50
2022-10-28T08:51:49.768Z,213.75
2022-10-28T08:52:49.830Z,219.38
2022-10-28T08:53:49.734Z,219.38
2022-10-28T08:54:49.720Z,219.38
2022-10-28T08:55:49.764Z,208.12
2022-10-28T08:56:50.794Z,208.12
2022-10-28T08:57:49.684Z,208.12
2022-10-28T08:58:49.796Z,219.38
2022-10-28T08:59:49.714Z,230.62
2022-10-28T09:00:50.254Z,241.88
2022-10-28T09:01:49.954Z,241.88
2022-10-28T09:02:49.760Z,247.50
2022-10-28T09:03:49.796Z,247.50
2022-10-28T09:04:49.915Z,247.50
2022-10-28T09:05:49.884Z,247.50
2022-10-28T09:06:49.805Z,247.50
2022-10-28T09:07:49.786Z,247.50
2022-10-28T09:08:49.723Z,247.50
2022-10-28T09:09:49.756Z,247.50
2022-10-28T09:10:49.730Z,247.50
2022-10-28T09:11:49.857Z,247.50
2022-10-28T09:12:49.699Z,253.12
2022-10-28T09:13:49.687Z,253.12
2022-10-28T09:14:49.707Z,253.12
2022-10-28T09:15:49.712Z,253.12
2022-10-28T09:16:49.669Z,253.12
2022-10-28T09:17:49.644Z,253.12
2022-10-28T09:18:49.647Z,253.12
2022-10-28T09:19:49.639Z,253.12
2022-10-28T09:20:49.614Z,247.50
2022-10-28T09:21:49.661Z,253.12
2022-10-28T09:22:49.557Z,253.12
2022-10-28T09:23:49.543Z,258.75
2022-10-28T09:24:49.504Z,258.75
2022-10-28T09:25:49.479Z,264.38
2022-10-28T09:26:49.491Z,264.38
2022-10-28T09:27:49.472Z,270.00
2022-10-28T09:28:49.535Z,275.62
2022-10-28T09:29:49.488Z,275.62
2022-10-28T09:30:49.484Z,281.25
2022-10-28T09:31:49.485Z,281.25
2022-10-28T09:32:49.620Z,281.25
2022-10-28T09:33:49.621Z,286.88
2022-10-28T09:34:49.821Z,286.88
2022-10-28T09:35:49.495Z,292.50
2022-10-28T09:36:49.464Z,298.12
2022-10-28T09:37:50.484Z,298.12
2022-10-28T09:38:49.509Z,303.75
2022-10-28T09:39:49.698Z,303.75
2022-10-28T09:40:49.469Z,309.38
2022-10-28T09:41:49.499Z,303.75
2022-10-28T09:42:49.445Z,286.88
2022-10-28T09:43:49.474Z,270.00
2022-10-28T09:44:49.503Z,281.25
2022-10-28T09:45:49.457Z,286.88
2022-10-28T09:46:49.451Z,275.62
2022-10-28T09:47:49.412Z,258.75
2022-10-28T09:48:49.482Z,258.75
2022-10-28T09:49:49.538Z,258.75
2022-10-28T09:50:49.343Z,264.38
2022-10-28T09:51:49.323Z,270.00
2022-10-28T09:52:49.335Z,275.62
2022-10-28T09:53:49.315Z,286.88
2022-10-28T09:54:49.335Z,303.75
2022-10-28T09:55:49.547Z,303.75
2022-10-28T09:56:49.362Z,309.38
2022-10-28T09:57:49.287Z,331.88
2022-10-28T09:58:49.287Z,309.38
2022-10-28T09:59:49.254Z,303.75
2022-10-28T10:00:49.385Z,320.62
2022-10-28T10:01:49.449Z,320.62
2022-10-28T10:02:49.413Z,326.25
2022-10-28T10:03:49.381Z,320.62
2022-10-28T10:04:49.328Z,326.25
2022-10-28T10:05:49.320Z,320.62
2022-10-28T10:06:49.468Z,303.75
2022-10-28T10:07:49.448Z,309.38
2022-10-28T10:08:49.367Z,292.50
2022-10-28T10:09:49.263Z,298.12
2022-10-28T10:10:49.497Z,298.12
2022-10-28T10:11:49.276Z,292.50
2022-10-28T10:12:51.478Z,292.50
2022-10-28T10:13:49.267Z,292.50
2022-10-28T10:14:49.282Z,292.50
2022-10-28T10:15:49.280Z,286.88
2022-10-28T10:16:49.356Z,286.88
2022-10-28T10:17:49.245Z,286.88
2022-10-28T10:18:49.192Z,286.88
2022-10-28T10:19:50.557Z,286.88
2022-10-28T10:20:50.315Z,292.50
2022-10-28T10:21:49.611Z,292.50
2022-10-28T10:22:49.220Z,292.50
2022-10-28T10:23:49.224Z,292.50
2022-10-28T10:24:49.163Z,292.50
2022-10-28T10:25:49.146Z,298.12
2022-10-28T10:26:49.168Z,303.75
2022-10-28T10:27:49.126Z,298.12
2022-10-28T10:28:49.045Z,298.12
2022-10-28T10:29:49.146Z,298.12
2022-10-28T10:30:49.065Z,303.75
2022-10-28T10:31:49.010Z,309.38
2022-10-28T10:32:49.179Z,320.62
2022-10-28T10:33:49.143Z,320.62
2022-10-28T10:34:49.140Z,331.88
2022-10-28T10:35:49.192Z,337.50
2022-10-28T10:36:49.096Z,331.88
2022-10-28T10:37:49.152Z,337.50
2022-10-28T10:38:49.077Z,326.25
2022-10-28T10:39:49.189Z,326.25
2022-10-28T10:40:49.056Z,331.88
2022-10-28T10:41:49.162Z,320.62
2022-10-28T10:43:09.801Z,292.50
2022-10-28T10:43:51.027Z,292.50
2022-10-28T10:44:48.991Z,292.50
2022-10-28T10:45:49.068Z,292.50
2022-10-28T10:46:49.048Z,292.50
2022-10-28T10:47:49.005Z,298.12
2022-10-28T10:48:49.228Z,298.12
2022-10-28T10:49:49.013Z,298.12
2022-10-28T10:50:49.986Z,298.12
2022-10-28T10:51:48.988Z,298.12
2022-10-28T10:52:48.999Z,298.12
2022-10-28T10:53:49.004Z,298.12
2022-10-28T10:54:49.174Z,298.12
2022-10-28T10:55:48.885Z,292.50
2022-10-28T10:56:48.900Z,292.50
2022-10-28T10:57:48.836Z,286.88
2022-10-28T10:58:49.824Z,286.88
2022-10-28T10:59:49.033Z,286.88
2022-10-28T11:00:48.823Z,286.88
2022-10-28T11:01:48.923Z,292.50
2022-10-28T11:02:52.176Z,270.00
2022-10-28T11:03:50.936Z,270.00
2022-10-28T11:04:48.838Z,292.50
2022-10-28T11:05:55.094Z,286.88
2022-10-28T11:06:49.787Z,292.50
2022-10-28T11:07:48.989Z,286.88
2022-10-28T11:08:48.822Z,292.50
2022-10-28T11:09:48.843Z,286.88
2022-10-28T11:10:49.162Z,281.25
2022-10-28T11:11:48.910Z,275.62
2022-10-28T11:12:49.537Z,286.88
2022-10-28T11:13:48.827Z,286.88
2022-10-28T11:14:48.833Z,298.12
2022-10-28T11:15:48.849Z,303.75
2022-10-28T11:16:48.857Z,303.75
2022-10-28T11:17:49.796Z,309.38
2022-10-28T11:18:48.820Z,292.50
2022-10-28T11:19:48.868Z,281.25
2022-10-28T11:20:48.809Z,281.25
2022-10-28T11:21:48.915Z,270.00
2022-10-28T11:22:48.740Z,270.00
2022-10-28T11:23:48.896Z,281.25
2022-10-28T11:24:48.755Z,309.38
2022-10-28T11:25:48.912Z,309.38
2022-10-28T11:26:48.655Z,298.12
2022-10-28T11:27:51.822Z,298.12
2022-10-28T11:28:49.632Z,298.12
2022-10-28T11:29:48.749Z,303.75
2022-10-28T11:30:48.843Z,298.12
2022-10-28T11:31:48.687Z,292.50
2022-10-28T11:33:01.588Z,286.88
2022-10-28T11:33:50.615Z,270.00
2022-10-28T11:34:48.618Z,258.75
2022-10-28T11:35:48.700Z,264.38
2022-10-28T11:36:48.670Z,253.12
2022-10-28T11:37:48.686Z,247.50
2022-10-28T11:38:48.706Z,241.88
2022-10-28T11:39:49.667Z,247.50
2022-10-28T11:40:48.674Z,258.75
2022-10-28T11:41:48.648Z,275.62
2022-10-28T11:42:48.616Z,275.62
2022-10-28T11:43:52.142Z,281.25
2022-10-28T11:44:50.719Z,292.50
2022-10-28T11:45:51.327Z,292.50
2022-10-28T11:46:49.628Z,298.12
2022-10-28T11:47:48.611Z,298.12
2022-10-28T11:48:48.794Z,298.12
2022-10-28T11:49:48.594Z,303.75
2022-10-28T11:50:48.695Z,309.38
2022-10-28T11:51:48.743Z,309.38
2022-10-28T11:52:48.661Z,315.00
2022-10-28T11:53:48.491Z,315.00
2022-10-28T11:54:48.511Z,326.25
2022-10-28T11:55:48.450Z,320.62
2022-10-28T11:56:48.495Z,315.00
2022-10-28T11:57:48.630Z,315.00
2022-10-28T11:58:48.484Z,320.62
2022-10-28T11:59:48.478Z,337.50
2022-10-28T12:00:48.505Z,337.50
2022-10-28T12:01:48.676Z,343.12
2022-10-28T12:02:52.296Z,348.75
2022-10-28T12:03:49.424Z,354.38
2022-10-28T12:04:48.533Z,354.38
2022-10-28T12:05:48.543Z,354.38
2022-10-28T12:06:48.503Z,354.38
2022-10-28T12:07:48.551Z,360.00
2022-10-28T12:08:48.464Z,360.00
2022-10-28T12:09:48.577Z,365.62
2022-10-28T12:10:48.489Z,371.25
2022-10-28T12:11:48.577Z,371.25
2022-10-28T12:12:51.229Z,376.88
2022-10-28T12:13:48.588Z,382.50
2022-10-28T12:14:48.327Z,393.75
2022-10-28T12:15:48.573Z,399.38
2022-10-28T12:16:48.416Z,410.62
2022-10-28T12:17:48.417Z,399.38
2022-10-28T12:18:48.369Z,393.75
2022-10-28T12:19:48.349Z,388.12
2022-10-28T12:20:48.434Z,399.38
2022-10-28T12:21:48.345Z,393.75
2022-10-28T12:22:48.365Z,399.38
2022-10-28T12:23:48.389Z,405.00
2022-10-28T12:24:48.382Z,405.00
2022-10-28T12:25:48.363Z,416.25
2022-10-28T12:26:48.362Z,450.00
2022-10-28T12:27:49.233Z,528.75
2022-10-28T12:28:48.337Z,579.38
2022-10-28T12:29:48.346Z,495.00
2022-10-28T12:30:48.362Z,489.38
2022-10-28T12:31:48.478Z,461.25
2022-10-28T12:32:48.420Z,500.62
2022-10-28T12:33:48.277Z,534.38
2022-10-28T12:34:48.394Z,596.25
2022-10-28T12:35:48.435Z,618.75
2022-10-28T12:36:48.169Z,528.75
2022-10-28T12:37:48.814Z,573.75
2022-10-28T12:38:48.149Z,556.88
2022-10-28T12:39:48.175Z,573.75
2022-10-28T12:40:48.122Z,579.38
2022-10-28T12:41:48.175Z,585.00
2022-10-28T12:42:48.174Z,573.75
2022-10-28T12:43:48.116Z,500.62
2022-10-28T12:44:51.353Z,511.88
2022-10-28T12:45:49.146Z,630.00
2022-10-28T12:47:48.161Z,607.50
2022-10-28T12:48:49.228Z,607.50
2022-10-28T12:49:48.158Z,635.62
2022-10-28T12:50:48.162Z,646.88
2022-10-28T12:51:48.204Z,630.00
2022-10-28T12:52:48.216Z,708.75
2022-10-28T12:53:48.231Z,708.75
2022-10-28T12:54:52.728Z,748.12
2022-10-28T12:55:50.304Z,748.12
2022-10-28T12:56:48.126Z,770.62
2022-10-28T12:57:48.205Z,798.75